createdAt,value
2022-10-13T00:01:18.426Z,12.26
2022-10-13T00:03:49.736Z,11.75
2022-10-13T00:06:24.242Z,11.34
2022-10-13T00:08:52.643Z,11.02
2022-10-13T00:27:01.836Z,13.54
2022-10-13T00:29:29.802Z,12.85
2022-10-13T00:31:57.640Z,12.24
2022-10-13T00:34:25.417Z,11.78
2022-10-13T00:36:53.181Z,11.45
2022-10-13T00:39:20.999Z,11.14
2022-10-13T00:41:48.796Z,10.90
2022-10-13T00:44:54.624Z,10.67
2022-10-13T00:47:26.176Z,10.42
2022-10-13T00:49:55.774Z,10.25
2022-10-13T00:52:25.774Z,10.45
2022-10-13T00:54:55.538Z,11.91
2022-10-13T00:57:27.348Z,13.38
2022-10-13T00:59:57.577Z,14.04
2022-10-13T01:02:32.492Z,13.38
2022-10-13T01:05:00.675Z,12.55
2022-10-13T01:07:29.409Z,12.01
2022-10-13T01:09:57.771Z,11.59
2022-10-13T01:12:34.449Z,11.25
2022-10-13T01:15:13.545Z,10.98
2022-10-13T01:18:14.046Z,10.73
2022-10-13T01:20:59.039Z,10.44
2022-10-13T01:23:56.265Z,10.23
2022-10-13T01:26:39.318Z,10.54
2022-10-13T01:29:12.991Z,12.24
2022-10-13T01:32:07.131Z,13.26
2022-10-13T01:34:48.354Z,12.69
2022-10-13T01:37:42.305Z,11.98
2022-10-13T01:40:24.965Z,11.44
2022-10-13T01:43:03.174Z,11.06
2022-10-13T01:45:37.662Z,10.75
2022-10-13T01:48:06.166Z,10.42
2022-10-13T01:50:40.934Z,10.45
2022-10-13T01:53:10.306Z,11.80
2022-10-13T01:55:53.720Z,13.10
2022-10-13T01:58:25.020Z,13.42
2022-10-13T02:01:11.247Z,12.61
2022-10-13T02:04:11.914Z,11.83
2022-10-13T02:06:39.970Z,11.27
2022-10-13T02:09:15.572Z,10.95
2022-10-13T02:11:50.820Z,10.63
2022-10-13T02:14:22.999Z,10.37
2022-10-13T02:16:52.401Z,10.17
2022-10-13T02:19:23.486Z,9.98
2022-10-13T02:21:52.099Z,10.12
2022-10-13T02:24:20.243Z,11.44
2022-10-13T02:26:50.509Z,12.71
2022-10-13T02:29:21.078Z,13.15
2022-10-13T02:31:49.430Z,12.42
2022-10-13T02:34:17.774Z,11.67
2022-10-13T02:36:51.169Z,11.09
2022-10-13T02:39:23.731Z,10.71
2022-10-13T02:41:52.512Z,10.43
2022-10-13T02:44:21.079Z,10.17
2022-10-13T02:46:49.018Z,9.93
2022-10-13T02:49:19.183Z,10.04
2022-10-13T02:51:47.226Z,11.32
2022-10-13T02:54:15.011Z,12.49
2022-10-13T02:56:42.819Z,12.95
2022-10-13T02:59:12.502Z,12.31
2022-10-13T03:01:44.863Z,11.52
2022-10-13T03:04:12.984Z,10.92
2022-10-13T03:06:44.829Z,10.49
2022-10-13T03:09:14.433Z,10.13
2022-10-13T03:11:43.005Z,10.14
2022-10-13T03:14:10.834Z,11.28
2022-10-13T03:17:07.023Z,12.38
2022-10-13T03:19:38.234Z,11.91
2022-10-13T03:22:08.103Z,11.28
2022-10-13T03:24:36.122Z,10.78
2022-10-13T03:27:03.902Z,10.35
2022-10-13T03:29:31.798Z,10.00
2022-10-13T03:32:03.794Z,10.03
2022-10-13T03:34:31.920Z,11.27
2022-10-13T03:37:01.119Z,12.44
2022-10-13T03:39:35.216Z,12.91
2022-10-13T03:42:03.878Z,12.24
2022-10-13T03:44:31.698Z,11.48
2022-10-13T03:47:01.769Z,10.96
2022-10-13T03:49:32.109Z,10.54
2022-10-13T03:51:59.915Z,10.20
2022-10-13T03:54:27.771Z,9.93
2022-10-13T03:56:55.747Z,9.89
2022-10-13T03:59:23.597Z,10.71
2022-10-13T04:01:53.100Z,11.78
2022-10-13T04:04:23.123Z,12.47
2022-10-13T04:06:53.758Z,11.92
2022-10-13T04:09:21.628Z,11.14
2022-10-13T04:11:53.137Z,10.54
2022-10-13T04:14:23.815Z,10.10
2022-10-13T04:16:51.588Z,9.80
2022-10-13T04:19:19.581Z,9.80
2022-10-13T04:21:47.690Z,10.93
2022-10-13T04:24:19.306Z,12.12
2022-10-13T04:26:47.893Z,12.67
2022-10-13T04:29:16.064Z,12.08
2022-10-13T04:31:44.751Z,11.36
2022-10-13T04:34:12.693Z,10.80
2022-10-13T04:36:40.465Z,10.38
2022-10-13T04:39:09.228Z,9.99
2022-10-13T04:41:37.407Z,9.72
2022-10-13T04:44:15.492Z,9.80
2022-10-13T04:57:44.251Z,11.39
2022-10-13T05:00:28.552Z,10.83
2022-10-13T05:03:07.739Z,10.34
2022-10-13T05:05:35.566Z,10.00
2022-10-13T05:08:03.358Z,9.72
2022-10-13T05:10:34.666Z,9.76
2022-10-13T05:13:02.941Z,10.99
2022-10-13T05:15:31.767Z,12.26
2022-10-13T05:18:00.589Z,12.83
2022-10-13T05:20:28.427Z,12.19
2022-10-13T05:22:57.083Z,11.44
2022-10-13T05:25:31.489Z,10.87
2022-10-13T05:28:04.104Z,10.40
2022-10-13T05:30:32.389Z,10.03
2022-10-13T05:43:34.241Z,12.83
2022-10-13T05:46:02.429Z,12.27
2022-10-13T05:48:33.155Z,11.42
2022-10-13T05:51:04.470Z,10.79
2022-10-13T05:53:44.405Z,10.33
2022-10-13T05:56:36.689Z,10.00
2022-10-13T05:59:40.001Z,9.96
2022-10-13T06:02:10.153Z,11.25
2022-10-13T06:04:41.113Z,12.51
2022-10-13T06:07:09.933Z,13.07
2022-10-13T06:09:40.260Z,12.45
2022-10-13T06:12:09.594Z,11.72
2022-10-13T06:14:39.062Z,11.19
2022-10-13T06:17:16.379Z,10.84
2022-10-13T06:19:45.579Z,10.58
2022-10-13T06:22:17.957Z,10.39
2022-10-13T06:24:48.446Z,10.24
2022-10-13T06:27:16.402Z,10.14
2022-10-13T06:29:45.240Z,10.34
2022-10-13T06:32:13.639Z,11.69
2022-10-13T06:34:44.501Z,13.10
2022-10-13T06:37:12.894Z,13.47
2022-10-13T06:39:40.708Z,12.81
2022-10-13T06:42:08.635Z,12.22
2022-10-13T06:44:39.440Z,11.80
2022-10-13T06:47:07.835Z,11.53
2022-10-13T06:49:35.718Z,11.32
2022-10-13T06:52:04.531Z,11.16
2022-10-13T06:54:34.525Z,11.04
2022-10-13T06:57:02.403Z,10.95
2022-10-13T06:59:32.295Z,10.89
2022-10-13T07:02:00.368Z,10.85
2022-10-13T07:04:28.286Z,11.07
2022-10-13T07:06:59.375Z,12.46
2022-10-13T07:09:28.106Z,13.64
2022-10-13T07:11:55.954Z,13.38
2022-10-13T07:14:23.904Z,12.81
2022-10-13T07:16:59.568Z,12.40
2022-10-13T07:19:28.050Z,12.13
2022-10-13T07:21:57.514Z,11.92
2022-10-13T07:24:26.973Z,11.77
2022-10-13T07:26:54.742Z,11.71
2022-10-13T07:29:23.998Z,11.63
2022-10-13T07:31:53.420Z,11.58
2022-10-13T07:34:32.325Z,11.58
2022-10-13T07:37:09.183Z,11.58
2022-10-13T07:39:41.559Z,11.55
2022-10-13T07:42:11.024Z,11.55
2022-10-13T07:44:38.835Z,11.78
2022-10-13T07:47:06.771Z,13.12
2022-10-13T07:49:35.760Z,14.23
2022-10-13T07:52:05.772Z,14.08
2022-10-13T07:54:33.791Z,13.64
2022-10-13T07:57:03.452Z,13.34
2022-10-13T07:59:34.319Z,13.14
2022-10-13T08:02:02.224Z,13.06
2022-10-13T08:04:36.152Z,13.02
2022-10-13T08:07:08.890Z,13.01
2022-10-13T08:09:36.831Z,13.07
2022-10-13T08:12:04.891Z,13.15
2022-10-13T08:14:33.047Z,13.24
2022-10-13T08:17:01.397Z,13.35
2022-10-13T08:19:32.810Z,13.47
2022-10-13T08:22:05.576Z,13.61
2022-10-13T08:25:07.182Z,13.78
2022-10-13T08:27:51.010Z,13.91
2022-10-13T08:30:31.297Z,14.05
2022-10-13T08:33:04.265Z,14.20
2022-10-13T08:35:35.129Z,14.37
2022-10-13T08:38:04.907Z,14.57
2022-10-13T08:40:38.821Z,14.81
2022-10-13T08:43:15.926Z,15.06
2022-10-13T08:45:48.291Z,15.28
2022-10-13T08:48:19.550Z,15.49
2022-10-13T08:50:53.263Z,15.66
2022-10-13T08:53:28.908Z,15.88
2022-10-13T08:56:01.987Z,16.13
2022-10-13T08:58:35.376Z,16.34
2022-10-13T09:01:09.597Z,16.53
2022-10-13T09:03:44.900Z,16.70
2022-10-13T09:06:35.370Z,16.90
2022-10-13T09:09:21.062Z,17.16
2022-10-13T09:11:57.681Z,17.37
2022-10-13T09:15:10.295Z,17.64
2022-10-13T09:17:44.343Z,17.91
2022-10-13T09:20:22.067Z,18.15
2022-10-13T09:23:05.248Z,18.35
2022-10-13T09:25:46.394Z,18.59
2022-10-13T09:28:27.303Z,18.78
2022-10-13T09:31:03.640Z,18.94
2022-10-13T09:33:37.748Z,19.06
2022-10-13T09:36:14.691Z,19.18
2022-10-13T09:39:21.344Z,19.32
2022-10-13T09:41:50.140Z,19.53
2022-10-13T09:44:30.291Z,19.67
2022-10-13T09:47:00.710Z,19.81
2022-10-13T09:49:31.591Z,19.91
2022-10-13T09:52:20.075Z,20.03
2022-10-13T09:54:52.003Z,20.25
2022-10-13T09:57:53.268Z,20.40
2022-10-13T10:00:30.804Z,20.58
2022-10-13T10:03:17.178Z,20.72
2022-10-13T10:05:53.610Z,20.87
2022-10-13T10:08:33.987Z,21.06
2022-10-13T10:11:14.305Z,21.20
2022-10-13T10:13:43.744Z,21.33
2022-10-13T10:17:05.166Z,21.44
2022-10-13T10:19:47.345Z,21.51
2022-10-13T10:22:49.075Z,21.57
2022-10-13T10:30:53.281Z,22.06
2022-10-13T10:38:20.081Z,22.42
2022-10-13T10:42:08.426Z,22.50
2022-10-13T10:56:12.292Z,22.98
2022-10-13T10:59:52.789Z,23.12
2022-10-13T11:02:41.217Z,23.26
2022-10-13T11:05:17.519Z,23.37
2022-10-13T11:07:46.607Z,23.48
2022-10-13T11:10:25.010Z,23.50
2022-10-13T11:12:53.192Z,23.56
2022-10-13T11:15:47.303Z,23.64
2022-10-13T11:29:54.034Z,23.98
2022-10-13T11:32:33.861Z,24.14
2022-10-13T11:41:10.278Z,24.33
2022-10-13T11:43:08.446Z,24.42
2022-10-13T11:51:44.139Z,24.87
2022-10-13T11:54:49.919Z,24.98
2022-10-13T11:57:32.986Z,24.94
2022-10-13T12:00:18.748Z,24.87
2022-10-13T12:06:56.084Z,24.83
2022-10-13T12:09:52.364Z,24.91
2022-10-13T12:12:37.583Z,24.97
2022-10-13T12:16:05.387Z,25.08
2022-10-13T12:19:23.382Z,25.20
2022-10-13T12:21:54.835Z,25.30
2022-10-13T12:24:24.204Z,25.28
2022-10-13T12:26:52.745Z,25.24
2022-10-13T12:29:24.914Z,25.27
2022-10-13T12:31:53.216Z,25.38
2022-10-13T12:34:27.718Z,25.42
2022-10-13T12:37:00.906Z,25.42
2022-10-13T12:39:32.002Z,25.42
2022-10-13T12:42:00.998Z,25.51
2022-10-13T12:44:30.923Z,25.52
2022-10-13T12:47:03.845Z,25.57
2022-10-13T12:49:35.148Z,25.65
2022-10-13T12:52:09.280Z,25.76
2022-10-13T12:54:39.760Z,25.94
2022-10-13T12:57:17.520Z,26.11
2022-10-13T12:59:45.574Z,26.24
2022-10-13T13:02:28.386Z,26.41
2022-10-13T13:04:56.278Z,26.59
2022-10-13T13:07:30.086Z,26.77
2022-10-13T13:10:19.122Z,27.00
2022-10-13T13:12:51.270Z,27.26
2022-10-13T13:15:24.960Z,27.51
2022-10-13T13:17:58.142Z,27.73
2022-10-13T13:20:34.792Z,27.97
2022-10-13T13:23:02.592Z,28.24
2022-10-13T13:25:30.282Z,28.53
2022-10-13T13:27:58.030Z,28.77
2022-10-13T13:30:26.562Z,29.02
2022-10-13T13:32:54.303Z,29.31
2022-10-13T13:35:22.156Z,29.62
2022-10-13T13:37:51.102Z,29.94
2022-10-13T13:40:27.604Z,30.32
2022-10-13T13:42:55.849Z,30.70
2022-10-13T13:45:26.277Z,30.99
2022-10-13T13:47:59.466Z,31.26
2022-10-13T13:50:33.205Z,31.59
2022-10-13T13:53:01.918Z,31.93
2022-10-13T13:55:30.168Z,32.23
2022-10-13T13:57:58.296Z,32.45
2022-10-13T14:00:26.077Z,32.60
2022-10-13T14:02:58.042Z,32.72
2022-10-13T14:05:25.929Z,32.82
2022-10-13T14:07:55.464Z,32.97
2022-10-13T14:10:24.410Z,33.21
2022-10-13T14:12:52.728Z,33.49
2022-10-13T14:15:21.663Z,33.77
2022-10-13T14:17:54.571Z,34.10
2022-10-13T14:20:22.815Z,34.39
2022-10-13T14:22:50.539Z,34.62
2022-10-13T14:25:18.857Z,34.84
2022-10-13T14:27:46.608Z,35.05
2022-10-13T14:30:14.702Z,35.30
2022-10-13T14:32:42.489Z,35.48
2022-10-13T14:35:10.524Z,35.63
2022-10-13T14:37:38.552Z,35.78
2022-10-13T14:40:07.173Z,35.86
2022-10-13T14:42:34.941Z,35.91
2022-10-13T14:45:06.572Z,35.87
2022-10-13T14:47:34.326Z,35.64
2022-10-13T14:50:02.003Z,35.17
2022-10-13T14:52:31.780Z,34.65
2022-10-13T14:54:59.524Z,34.25
2022-10-13T14:57:27.905Z,33.97
2022-10-13T14:59:59.379Z,33.93
2022-10-13T15:02:30.049Z,33.91
2022-10-13T15:04:58.154Z,33.71
2022-10-13T15:07:26.281Z,33.21
2022-10-13T15:10:04.768Z,32.56
2022-10-13T15:12:33.967Z,31.93
2022-10-13T15:15:02.426Z,31.59
2022-10-13T15:17:31.115Z,31.31
2022-10-13T15:19:58.972Z,31.05
2022-10-13T15:22:26.887Z,30.65
2022-10-13T15:24:54.718Z,29.96
2022-10-13T15:27:23.513Z,29.12
2022-10-13T15:29:51.682Z,28.25
2022-10-13T15:32:20.454Z,27.42
2022-10-13T15:34:54.835Z,26.53
2022-10-13T15:37:22.647Z,25.74
2022-10-13T15:39:56.016Z,25.01
2022-10-13T15:42:25.191Z,24.30
2022-10-13T15:45:10.360Z,23.70
2022-10-13T15:47:41.842Z,23.06
2022-10-13T15:50:10.419Z,22.57
2022-10-13T15:52:40.858Z,22.13
2022-10-13T15:55:10.593Z,21.69
2022-10-13T15:57:39.256Z,21.29
2022-10-13T16:00:09.727Z,20.92
2022-10-13T16:02:41.514Z,20.58
2022-10-13T16:05:12.422Z,20.27
2022-10-13T16:07:41.275Z,19.96
2022-10-13T16:10:19.179Z,19.68
2022-10-13T16:12:49.726Z,19.40
2022-10-13T16:15:18.228Z,19.14
2022-10-13T16:17:46.467Z,18.89
2022-10-13T16:20:14.266Z,18.67
2022-10-13T16:22:42.432Z,18.44
2022-10-13T16:25:11.102Z,18.22
2022-10-13T16:27:43.837Z,18.04
2022-10-13T16:30:12.913Z,17.86
2022-10-13T16:32:40.885Z,17.69
2022-10-13T16:35:08.913Z,17.52
2022-10-13T16:37:36.684Z,17.37
2022-10-13T16:40:04.914Z,17.23
2022-10-13T16:42:32.718Z,17.10
2022-10-13T16:45:00.621Z,16.99
2022-10-13T16:47:29.283Z,16.87
2022-10-13T16:49:57.204Z,16.75
2022-10-13T16:52:25.211Z,16.63
2022-10-13T16:54:53.073Z,16.53
2022-10-13T16:57:23.820Z,16.44
2022-10-13T16:59:51.862Z,16.35
2022-10-13T17:02:19.643Z,16.29
2022-10-13T17:04:47.424Z,16.22
2022-10-13T17:07:15.274Z,16.16
2022-10-13T17:09:43.087Z,16.09
2022-10-13T17:12:11.120Z,16.00
2022-10-13T17:14:39.240Z,15.93
2022-10-13T17:17:07.054Z,15.85
2022-10-13T17:19:34.939Z,15.77
2022-10-13T17:22:02.860Z,15.71
2022-10-13T17:24:33.401Z,15.66
2022-10-13T17:27:01.450Z,15.61
2022-10-13T17:29:29.449Z,15.56
2022-10-13T17:31:57.253Z,15.52
2022-10-13T17:34:25.123Z,15.47
2022-10-13T17:36:52.887Z,15.41
2022-10-13T17:39:20.684Z,15.36
2022-10-13T17:41:48.669Z,15.28
2022-10-13T17:44:20.692Z,15.22
2022-10-13T17:46:50.062Z,15.17
2022-10-13T17:49:19.168Z,15.13
2022-10-13T17:51:51.974Z,15.08
2022-10-13T17:54:20.653Z,15.04
2022-10-13T17:56:49.363Z,15.00
2022-10-13T17:59:18.121Z,14.97
2022-10-13T18:01:46.264Z,14.94
2022-10-13T18:04:16.715Z,14.90
2022-10-13T18:06:45.074Z,14.86
2022-10-13T18:09:17.588Z,14.81
2022-10-13T18:11:50.566Z,14.77
2022-10-13T18:14:21.582Z,14.74
2022-10-13T18:16:50.939Z,14.70
2022-10-13T18:19:19.168Z,14.66
2022-10-13T18:21:47.699Z,14.63
2022-10-13T18:24:15.529Z,14.60
2022-10-13T18:26:46.481Z,14.77
2022-10-13T18:29:14.669Z,15.77
2022-10-13T18:31:43.132Z,16.81
2022-10-13T18:34:14.551Z,17.49
2022-10-13T18:36:47.865Z,17.17
2022-10-13T18:39:18.435Z,16.63
2022-10-13T18:41:47.828Z,16.22
2022-10-13T18:44:17.026Z,15.93
2022-10-13T18:46:45.088Z,15.67
2022-10-13T18:49:14.650Z,15.45
2022-10-13T18:51:42.939Z,15.28
2022-10-13T18:54:11.246Z,15.12
2022-10-13T18:56:39.146Z,14.99
2022-10-13T18:59:11.561Z,14.87
2022-10-13T19:01:41.039Z,14.76
2022-10-13T19:04:09.922Z,14.68
2022-10-13T19:06:37.848Z,14.61
2022-10-13T19:09:08.286Z,14.55
2022-10-13T19:11:37.894Z,14.77
2022-10-13T19:14:08.887Z,16.07
2022-10-13T19:16:42.224Z,17.32
2022-10-13T19:19:10.933Z,17.89
2022-10-13T19:21:39.686Z,17.37
2022-10-13T19:24:10.694Z,16.75
2022-10-13T19:26:38.669Z,16.29
2022-10-13T19:29:09.970Z,15.97
2022-10-13T19:31:39.043Z,15.71
2022-10-13T19:34:10.827Z,15.51
2022-10-13T19:36:44.596Z,15.33
2022-10-13T19:39:24.098Z,15.17
2022-10-13T19:41:54.003Z,15.02
2022-10-13T19:44:23.796Z,14.90
2022-10-13T19:46:52.377Z,14.79
2022-10-13T19:49:22.480Z,14.68
2022-10-13T19:51:50.358Z,14.86
2022-10-13T19:54:19.709Z,16.17
2022-10-13T19:56:48.938Z,17.34
2022-10-13T19:59:19.711Z,17.87
2022-10-13T20:01:47.911Z,17.36
2022-10-13T20:04:18.629Z,16.76
2022-10-13T20:06:48.244Z,16.31
2022-10-13T20:09:17.186Z,15.99
2022-10-13T20:11:46.526Z,15.73
2022-10-13T20:14:16.370Z,15.51
2022-10-13T20:16:45.022Z,15.33
2022-10-13T20:19:14.778Z,15.16
2022-10-13T20:21:43.556Z,15.01
2022-10-13T20:24:13.033Z,14.88
2022-10-13T20:26:41.162Z,14.76
2022-10-13T20:29:09.021Z,14.91
2022-10-13T20:31:36.849Z,16.14
2022-10-13T20:34:04.768Z,17.31
2022-10-13T20:36:38.356Z,17.77
2022-10-13T20:39:08.894Z,17.19
2022-10-13T20:41:36.728Z,16.51
2022-10-13T20:44:04.654Z,16.04
2022-10-13T20:46:34.423Z,15.70
2022-10-13T20:49:13.019Z,15.41
2022-10-13T20:51:42.837Z,15.16
2022-10-13T20:54:13.295Z,14.96
2022-10-13T20:56:41.764Z,14.77
2022-10-13T20:59:12.515Z,14.62
2022-10-13T21:01:40.785Z,14.48
2022-10-13T21:04:13.076Z,14.34
2022-10-13T21:06:44.627Z,14.21
2022-10-13T21:09:17.337Z,14.36
2022-10-13T21:11:53.948Z,15.65
2022-10-13T21:14:25.234Z,16.75
2022-10-13T21:16:57.831Z,17.21
2022-10-13T21:19:32.861Z,16.68
2022-10-13T21:22:09.119Z,16.03
2022-10-13T21:24:41.333Z,15.56
2022-10-13T21:27:09.131Z,15.21
2022-10-13T21:29:36.874Z,14.96
2022-10-13T21:32:05.187Z,14.70
2022-10-13T21:34:33.041Z,14.48
2022-10-13T21:37:01.135Z,14.28
2022-10-13T21:39:28.931Z,14.09
2022-10-13T21:41:56.718Z,14.20
2022-10-13T21:44:27.509Z,15.38
2022-10-13T21:46:55.450Z,16.47
2022-10-13T21:49:23.310Z,16.94
2022-10-13T21:51:51.047Z,16.44
2022-10-13T21:54:18.799Z,15.82
2022-10-13T21:56:46.581Z,15.35
2022-10-13T21:59:14.629Z,15.00
2022-10-13T22:01:43.280Z,14.73
2022-10-13T22:04:14.470Z,14.49
2022-10-13T22:06:42.769Z,14.29
2022-10-13T22:09:11.144Z,14.09
2022-10-13T22:11:39.677Z,14.14
2022-10-13T22:14:11.974Z,15.48
2022-10-13T22:16:48.230Z,16.74
2022-10-13T22:19:17.367Z,16.95
2022-10-13T22:21:47.686Z,16.23
2022-10-13T22:24:17.737Z,15.56
2022-10-13T22:26:47.127Z,15.08
2022-10-13T22:29:19.319Z,14.72
2022-10-13T22:31:49.259Z,14.44
2022-10-13T22:34:17.751Z,14.24
2022-10-13T22:36:45.630Z,14.06
2022-10-13T22:39:14.350Z,14.17
2022-10-13T22:41:42.314Z,15.29
2022-10-13T22:44:10.477Z,16.42
2022-10-13T22:46:38.606Z,16.96
2022-10-13T22:49:07.138Z,16.42
2022-10-13T22:51:36.120Z,15.74
2022-10-13T22:54:05.583Z,15.24
2022-10-13T22:56:34.371Z,14.89
2022-10-13T22:59:05.010Z,14.62
2022-10-13T23:01:53.709Z,14.37
2022-10-13T23:04:21.543Z,14.14
2022-10-13T23:06:49.994Z,14.32
2022-10-13T23:09:18.151Z,15.69
2022-10-13T23:11:47.149Z,16.92
2022-10-13T23:14:19.640Z,17.33
2022-10-13T23:16:47.602Z,16.67
2022-10-13T23:19:15.766Z,16.01
2022-10-13T23:21:43.610Z,15.52
2022-10-13T23:24:12.243Z,15.16
2022-10-13T23:26:40.043Z,14.86
2022-10-13T23:29:09.156Z,14.64
2022-10-13T23:31:37.011Z,14.43
2022-10-13T23:34:04.760Z,14.27
2022-10-13T23:36:32.933Z,14.41
2022-10-13T23:39:04.379Z,15.69
2022-10-13T23:41:37.149Z,16.99
2022-10-13T23:44:06.312Z,17.47
2022-10-13T23:46:34.252Z,16.87
2022-10-13T23:49:02.137Z,16.19
2022-10-13T23:51:30.513Z,15.69
2022-10-13T23:53:59.107Z,15.31
2022-10-13T23:56:27.002Z,15.00
2022-10-13T23:58:55.222Z,14.74
